Genova / Sestri Cristoforo Colombo Airport LIMJ

Flugplatz Daten

Name: Genova / Sestri Cristoforo Colombo Airport

Ident: LIMJ

Lat: 44,41329956

Long: 8,837499619

Platzhöhe: 13 ft

IataCode: GOA

City: Genova

Homepage: http://www.aeroportodigenova.com/en/home/index.php

Metar

2021/08/05 13:20
LIMJ 051320Z 15010KT CAVOK 24/21 Q1008

Taf

2021/08/05 12:00
TAF LIMJ 051100Z 0512/0612 17010KT 9999 SCT030
BECMG 0516/0518 11013KT
BECMG 0602/0604 VRB05KT
BECMG 0609/0611 13013KT
Gewünschte Webcam nicht vorhanden? Dann fügen Sie eine hinzu. Sie wird dann so schnell wie möglich freigeschaltet
Url: Title: